Time;durP1;ratioP1;P1;durP2;ratioP2;P2;SDS_P1;SDS_P2;PMS_P1;PMS_P2;Temp;Humidity;BMP_temperature;BMP_pressure;BME280_temperature;BME280_humidity;BME280_pressure;Samples;Min_cycle;Max_cycle;Signal;HPM_P1;HPM_P2
2022/02/16 00:00:34;;;;;;;7.28;1.98;;;7.70;86.40;;;;;;5057124;28;20041;-74
2022/02/16 00:03:00;;;;;;;8.98;2.05;;;7.70;59.00;;;;;;5058328;28;20045;-74
2022/02/16 00:05:26;;;;;;;8.25;1.90;;;7.70;85.30;;;;;;5058601;28;20072;-74
2022/02/16 00:07:52;;;;;;;5.97;1.60;;;7.70;35.60;;;;;;5058178;28;20041;-74
2022/02/16 00:10:18;;;;;;;4.78;1.60;;;7.70;66.10;;;;;;5058774;28;20376;-74
2022/02/16 00:12:46;;;;;;;9.95;2.03;;;7.70;53.30;;;;;;5058203;28;20068;-74
2022/02/16 00:15:14;;;;;;;9.02;1.70;;;7.70;49.10;;;;;;5057532;28;20028;-74
2022/02/16 00:17:42;;;;;;;5.85;1.88;;;7.80;37.30;;;;;;5057687;28;20041;-74
2022/02/16 00:20:10;;;;;;;8.02;1.73;;;7.70;32.00;;;;;;5057747;28;20562;-74
2022/02/16 00:22:35;;;;;;;7.72;1.75;;;7.80;23.20;;;;;;5057269;28;20411;-74
2022/02/16 00:25:02;;;;;;;7.50;2.30;;;7.80;28.70;;;;;;5057379;28;20033;-74
2022/02/16 00:27:28;;;;;;;5.03;1.67;;;7.70;42.80;;;;;;5057339;28;20064;-74
2022/02/16 00:29:54;;;;;;;6.43;1.83;;;7.70;23.90;;;;;;5057276;28;20040;-74
2022/02/16 00:32:20;;;;;;;7.07;1.90;;;7.70;31.10;;;;;;5058007;28;20056;-74
2022/02/16 00:34:45;;;;;;;3.70;1.30;;;7.70;27.50;;;;;;5057222;28;20041;-74
2022/02/16 00:37:11;;;;;;;5.30;1.63;;;7.70;50.20;;;;;;5057409;28;20045;-74
2022/02/16 00:39:37;;;;;;;6.10;1.80;;;7.80;29.40;;;;;;5057075;28;20047;-75
2022/02/16 00:42:03;;;;;;;7.00;1.40;;;7.80;46.90;;;;;;5057068;28;20049;-75
2022/02/16 00:44:29;;;;;;;5.22;1.77;;;7.70;26.70;;;;;;5056999;28;20037;-75
2022/02/16 00:46:55;;;;;;;6.30;1.80;;;7.70;37.50;;;;;;5057375;28;20135;-74
2022/02/16 00:49:21;;;;;;;4.45;1.55;;;7.60;52.10;;;;;;5057172;28;20392;-74
2022/02/16 00:51:46;;;;;;;5.20;1.73;;;7.60;66.50;;;;;;5057390;28;20052;-74
2022/02/16 00:54:12;;;;;;;9.30;1.75;;;7.70;42.40;;;;;;5056897;28;20029;-74
2022/02/16 00:56:40;;;;;;;10.35;1.65;;;7.60;37.70;;;;;;5057069;28;20045;-74
2022/02/16 00:59:06;;;;;;;4.30;1.55;;;7.60;44.70;;;;;;5056475;28;20119;-74
2022/02/16 01:01:32;;;;;;;5.40;1.83;;;7.50;58.40;;;;;;5056624;28;20053;-74
2022/02/16 01:03:58;;;;;;;5.57;1.55;;;7.40;61.70;;;;;;5056672;28;20041;-74
2022/02/16 01:06:24;;;;;;;9.88;1.88;;;7.40;73.40;;;;;;5056895;28;20170;-74
2022/02/16 01:08:50;;;;;;;5.97;1.52;;;7.50;82.40;;;;;;5056875;28;20401;-74
2022/02/16 01:11:15;;;;;;;6.05;1.40;;;7.50;68.20;;;;;;5056124;28;20468;-74
2022/02/16 01:13:42;;;;;;;5.25;1.20;;;7.50;79.10;;;;;;5056407;28;20053;-75
2022/02/16 01:16:07;;;;;;;5.15;1.45;;;7.50;63.80;;;;;;5056944;28;20037;-74
2022/02/16 01:18:33;;;;;;;2.65;1.20;;;7.50;80.40;;;;;;5056843;28;20040;-74
2022/02/16 01:20:59;;;;;;;5.85;0.90;;;7.40;91.30;;;;;;5056526;28;20492;-74
2022/02/16 01:23:25;;;;;;;5.80;1.30;;;7.30;92.80;;;;;;5038783;28;20033;-74
2022/02/16 01:25:51;;;;;;;4.82;1.27;;;7.30;99.90;;;;;;5056513;28;20128;-74
2022/02/16 01:28:17;;;;;;;4.72;1.40;;;7.30;97.60;;;;;;5056271;28;20071;-74
2022/02/16 01:30:43;;;;;;;6.72;1.80;;;7.30;99.90;;;;;;5056607;28;20083;-74
2022/02/16 01:33:08;;;;;;;5.85;1.27;;;7.30;99.90;;;;;;5056717;28;20047;-74
2022/02/16 01:35:35;;;;;;;4.90;1.33;;;7.20;99.90;;;;;;5056283;28;20033;-74
2022/02/16 01:38:02;;;;;;;8.88;1.35;;;7.20;99.90;;;;;;5055999;28;20124;-75
2022/02/16 01:40:28;;;;;;;3.75;1.45;;;7.20;99.90;;;;;;5056263;28;20037;-74
2022/02/16 01:42:54;;;;;;;6.07;1.35;;;7.20;99.90;;;;;;5055849;28;20118;-75
2022/02/16 01:45:25;;;;;;;5.68;1.10;;;7.20;99.90;;;;;;5056159;28;20476;-74
2022/02/16 01:47:51;;;;;;;;;;;7.10;99.90;;;;;;5056191;28;20029;-74
2022/02/16 01:50:16;;;;;;;6.60;1.20;;;7.20;99.90;;;;;;5056340;28;20275;-74
2022/02/16 01:52:42;;;;;;;4.50;1.63;;;7.30;99.90;;;;;;5056106;28;20126;-74
2022/02/16 01:55:10;;;;;;;6.20;1.30;;;7.30;99.90;;;;;;5055994;28;20042;-75
2022/02/16 01:57:38;;;;;;;3.92;1.08;;;7.30;99.90;;;;;;5055468;28;20045;-74
2022/02/16 02:00:05;;;;;;;7.75;1.80;;;7.20;99.90;;;;;;5055761;28;20128;-74
2022/02/16 02:02:31;;;;;;;4.05;1.33;;;7.20;99.90;;;;;;5055956;28;20123;-74
2022/02/16 02:04:56;;;;;;;6.65;1.48;;;7.10;99.90;;;;;;5055481;28;20079;-75
2022/02/16 02:07:22;;;;;;;2.55;0.90;;;7.10;99.90;;;;;;5055644;28;20043;-75
2022/02/16 02:09:48;;;;;;;6.03;1.30;;;7.10;99.90;;;;;;5055642;28;20083;-74
2022/02/16 02:12:15;;;;;;;2.50;1.00;;;7.10;99.90;;;;;;5055330;28;20045;-74
2022/02/16 02:14:41;;;;;;;4.28;1.10;;;7.10;99.90;;;;;;5055939;28;20121;-74
2022/02/16 02:17:07;;;;;;;4.93;0.90;;;7.00;99.90;;;;;;5055559;28;20128;-74
2022/02/16 02:19:33;;;;;;;5.03;1.08;;;7.00;99.90;;;;;;5055784;28;20460;-74
2022/02/16 02:22:02;;;;;;;3.78;1.10;;;7.00;99.90;;;;;;5055845;28;20132;-74
2022/02/16 02:24:28;;;;;;;1.60;0.95;;;7.10;99.90;;;;;;5055610;28;20028;-74
2022/02/16 02:26:54;;;;;;;3.08;1.17;;;7.10;99.90;;;;;;5055512;28;20039;-74
2022/02/16 02:29:20;;;;;;;4.30;1.02;;;7.00;99.90;;;;;;5055520;28;20120;-74
2022/02/16 02:31:46;;;;;;;3.67;1.00;;;6.90;99.90;;;;;;5055292;28;20472;-74
2022/02/16 02:34:12;;;;;;;1.77;0.68;;;6.90;99.90;;;;;;5055594;28;20514;-74
2022/02/16 02:36:38;;;;;;;1.13;0.73;;;7.00;99.90;;;;;;5055174;28;20032;-74
2022/02/16 02:39:04;;;;;;;1.38;0.63;;;6.90;99.90;;;;;;5055444;28;20044;-74
2022/02/16 02:41:30;;;;;;;1.55;0.70;;;7.00;99.90;;;;;;5055566;28;20060;-74
2022/02/16 02:43:56;;;;;;;3.53;0.70;;;7.10;99.90;;;;;;5055301;28;20384;-74
2022/02/16 02:46:22;;;;;;;2.25;0.75;;;7.10;99.90;;;;;;5055498;28;20044;-75
2022/02/16 02:48:48;;;;;;;4.10;0.73;;;7.10;99.90;;;;;;5055162;28;20476;-74
2022/02/16 02:51:15;;;;;;;1.60;0.80;;;7.10;99.90;;;;;;5054929;28;20041;-74
2022/02/16 02:53:41;;;;;;;3.13;0.60;;;7.10;99.90;;;;;;5055322;28;20043;-75
2022/02/16 02:56:08;;;;;;;2.40;0.50;;;7.20;99.90;;;;;;5055414;28;20048;-75
2022/02/16 02:58:34;;;;;;;1.60;0.65;;;7.10;99.90;;;;;;5054613;28;20041;-74
2022/02/16 03:01:00;;;;;;;2.38;0.65;;;7.10;99.90;;;;;;5055293;28;20045;-75
2022/02/16 03:03:26;;;;;;;0.32;0.32;;;7.20;99.90;;;;;;5055188;28;20117;-74
2022/02/16 03:05:52;;;;;;;2.30;0.60;;;7.20;99.90;;;;;;5055023;28;20068;-75
2022/02/16 03:08:19;;;;;;;2.25;0.50;;;7.10;99.90;;;;;;5054626;28;20032;-74
2022/02/16 03:10:45;;;;;;;0.80;0.40;;;7.10;99.90;;;;;;5054638;28;20052;-74
2022/02/16 03:13:20;;;;;;;3.03;0.60;;;7.10;99.90;;;;;;5054554;28;20538;-75
2022/02/16 03:15:50;;;;;;;1.67;0.63;;;7.10;99.90;;;;;;5054912;28;20066;-75
2022/02/16 03:18:16;;;;;;;2.40;0.57;;;7.10;99.90;;;;;;5055095;28;20099;-74
2022/02/16 03:20:42;;;;;;;1.48;0.38;;;7.00;99.90;;;;;;5055349;28;20037;-74
2022/02/16 03:23:09;;;;;;;2.25;0.50;;;7.00;99.90;;;;;;5054882;28;20044;-75
2022/02/16 03:25:35;;;;;;;2.67;0.43;;;7.00;99.90;;;;;;5054584;28;20037;-74
2022/02/16 03:28:01;;;;;;;1.67;0.40;;;7.10;99.90;;;;;;5054713;28;20118;-74
2022/02/16 03:30:27;;;;;;;1.75;0.50;;;6.90;99.90;;;;;;5054465;28;20041;-74
2022/02/16 03:32:53;;;;;;;0.30;0.30;;;7.00;99.90;;;;;;5054624;28;20067;-74
2022/02/16 03:35:19;;;;;;;0.82;0.40;;;7.00;99.90;;;;;;5059469;28;20035;-74
2022/02/16 03:37:44;;;;;;;2.55;0.40;;;6.90;99.90;;;;;;5061393;28;20048;-75
2022/02/16 03:40:11;;;;;;;1.50;0.40;;;6.90;99.90;;;;;;5060996;28;20037;-75
2022/02/16 03:42:38;;;;;;;0.95;0.38;;;7.10;99.90;;;;;;5060048;28;20098;-75
2022/02/16 03:45:05;;;;;;;1.85;0.50;;;7.10;99.90;;;;;;5060549;28;20087;-74
2022/02/16 03:47:31;;;;;;;0.80;0.30;;;7.10;99.90;;;;;;5060897;28;20120;-75
2022/02/16 03:49:57;;;;;;;0.43;0.30;;;7.10;99.90;;;;;;5061117;28;20124;-74
2022/02/16 03:52:22;;;;;;;1.17;0.30;;;7.00;99.90;;;;;;5061400;28;20128;-74
2022/02/16 03:54:48;;;;;;;0.80;0.35;;;7.00;99.90;;;;;;5061050;28;20037;-74
2022/02/16 03:57:14;;;;;;;2.00;0.45;;;7.10;99.90;;;;;;5060361;28;20045;-74
2022/02/16 03:59:40;;;;;;;0.50;0.32;;;7.00;99.90;;;;;;5060816;28;20033;-74
2022/02/16 04:02:06;;;;;;;2.58;0.50;;;7.10;99.90;;;;;;5060391;28;20110;-74
2022/02/16 04:04:32;;;;;;;3.80;0.60;;;7.40;99.90;;;;;;5060495;28;20063;-74
2022/02/16 04:06:57;;;;;;;2.88;0.50;;;7.30;99.90;;;;;;5060759;28;20072;-74
2022/02/16 04:09:23;;;;;;;2.55;0.60;;;7.30;99.90;;;;;;5061023;28;20430;-74
2022/02/16 04:11:49;;;;;;;0.32;0.30;;;7.40;99.90;;;;;;5060826;28;20124;-74
2022/02/16 04:14:15;;;;;;;1.48;0.40;;;7.40;99.90;;;;;;5060598;28;20045;-74
2022/02/16 04:16:41;;;;;;;1.00;0.40;;;7.30;99.90;;;;;;5060747;28;20048;-74
2022/02/16 04:19:06;;;;;;;3.22;0.52;;;7.50;99.90;;;;;;5060658;28;20045;-74
2022/02/16 04:21:32;;;;;;;1.33;0.30;;;7.40;99.90;;;;;;5060599;28;20051;-74
2022/02/16 04:23:58;;;;;;;0.63;0.40;;;7.50;99.90;;;;;;5060769;28;20141;-74
2022/02/16 04:26:24;;;;;;;2.30;0.45;;;7.50;99.90;;;;;;5060211;28;20033;-74
2022/02/16 04:28:50;;;;;;;1.45;0.40;;;7.40;99.90;;;;;;5060415;28;20045;-74
2022/02/16 04:31:16;;;;;;;1.83;0.52;;;7.30;99.90;;;;;;5060534;28;20143;-74
2022/02/16 04:33:42;;;;;;;1.35;0.50;;;7.20;99.90;;;;;;5060711;28;20037;-74
2022/02/16 04:36:08;;;;;;;3.08;0.88;;;7.20;99.90;;;;;;5060490;28;20044;-74
2022/02/16 04:38:34;;;;;;;3.22;0.77;;;7.10;99.90;;;;;;5060460;28;20032;-74
2022/02/16 04:41:00;;;;;;;1.30;0.68;;;7.10;99.90;;;;;;5060350;28;20044;-74
2022/02/16 04:43:26;;;;;;;1.27;0.55;;;7.10;99.90;;;;;;5060468;28;20547;-74
2022/02/16 04:45:51;;;;;;;2.08;0.82;;;7.10;99.90;;;;;;5057831;28;20068;-74
2022/02/16 04:48:17;;;;;;;1.85;0.85;;;7.20;99.90;;;;;;5057472;28;20538;-74
2022/02/16 04:50:43;;;;;;;1.25;0.73;;;7.10;99.90;;;;;;5057488;28;20041;-74
2022/02/16 04:53:09;;;;;;;2.88;0.93;;;7.10;99.90;;;;;;5057561;28;20075;-74
2022/02/16 04:55:35;;;;;;;2.20;0.77;;;7.10;99.90;;;;;;5057395;28;20037;-74
2022/02/16 04:58:01;;;;;;;3.58;0.63;;;7.10;99.90;;;;;;5056629;28;20037;-74
2022/02/16 05:00:27;;;;;;;2.83;0.60;;;7.10;99.90;;;;;;5057030;28;20051;-74
2022/02/16 05:02:53;;;;;;;1.95;0.70;;;7.10;99.90;;;;;;5055607;28;20053;-74
2022/02/16 05:05:19;;;;;;;4.05;0.90;;;7.10;99.90;;;;;;5051580;28;20493;-74
2022/02/16 05:07:45;;;;;;;2.13;0.70;;;7.10;99.90;;;;;;5056488;28;20041;-74
2022/02/16 05:10:11;;;;;;;2.28;0.50;;;7.10;99.90;;;;;;5055844;28;20040;-74
2022/02/16 05:12:38;;;;;;;2.00;0.50;;;7.20;99.90;;;;;;5047718;28;20507;-74
2022/02/16 05:15:05;;;;;;;1.38;0.60;;;7.30;99.90;;;;;;5038062;28;20461;-74
2022/02/16 05:17:31;;;;;;;2.35;0.65;;;7.30;99.90;;;;;;5056930;28;20491;-73
2022/02/16 05:19:57;;;;;;;4.55;0.70;;;7.20;99.90;;;;;;5054741;28;20048;-74
2022/02/16 05:22:23;;;;;;;5.43;0.80;;;7.20;99.90;;;;;;5055497;28;20037;-74
2022/02/16 05:24:49;;;;;;;2.83;1.10;;;7.20;99.90;;;;;;5056517;28;20067;-74
2022/02/16 05:27:15;;;;;;;1.65;1.02;;;7.20;99.90;;;;;;5038302;28;20087;-74
2022/02/16 05:29:44;;;;;;;3.15;0.63;;;7.10;99.90;;;;;;5037064;28;20037;-74
2022/02/16 05:32:10;;;;;;;3.90;0.90;;;7.00;99.90;;;;;;5047801;28;20567;-75
2022/02/16 05:34:36;;;;;;;2.08;1.05;;;7.00;99.90;;;;;;5056202;28;20123;-76
2022/02/16 05:37:02;;;;;;;6.07;0.90;;;7.10;99.90;;;;;;5056247;28;20036;-77
2022/02/16 05:39:28;;;;;;;2.13;1.05;;;7.10;99.90;;;;;;5056052;28;20037;-73
2022/02/16 05:41:53;;;;;;;3.60;1.20;;;7.00;99.90;;;;;;5055731;28;20048;-74
2022/02/16 05:44:19;;;;;;;2.83;0.77;;;7.10;99.90;;;;;;5055915;28;20561;-73
2022/02/16 05:46:45;;;;;;;3.63;1.10;;;7.00;99.90;;;;;;5056396;28;20048;-74
2022/02/16 05:49:12;;;;;;;2.50;0.70;;;7.10;99.90;;;;;;5055765;28;20041;-75
2022/02/16 05:51:38;;;;;;;3.50;1.00;;;7.10;99.90;;;;;;5055485;28;20041;-74
2022/02/16 05:54:05;;;;;;;3.55;0.90;;;7.10;99.90;;;;;;5056094;28;20182;-74
2022/02/16 05:56:34;;;;;;;2.90;1.08;;;7.10;99.90;;;;;;5046626;28;20029;-74
2022/02/16 05:59:00;;;;;;;2.80;1.02;;;7.00;99.90;;;;;;5028665;28;20498;-74
2022/02/16 06:01:26;;;;;;;5.20;1.10;;;7.10;99.90;;;;;;5044853;28;20167;-74
2022/02/16 06:03:52;;;;;;;3.17;1.15;;;7.10;99.90;;;;;;5046190;28;20055;-74
2022/02/16 06:06:18;;;;;;;3.92;1.20;;;7.10;99.90;;;;;;5044008;28;20037;-74
2022/02/16 06:08:46;;;;;;;3.58;1.52;;;6.70;99.90;;;;;;5045048;28;20041;-74
2022/02/16 06:11:12;;;;;;;2.55;0.88;;;7.10;99.90;;;;;;5045732;28;20073;-74
2022/02/16 06:13:38;;;;;;;4.15;0.82;;;7.10;99.90;;;;;;5045587;28;20064;-74
2022/02/16 06:16:05;;;;;;;3.97;1.00;;;7.10;99.90;;;;;;5044761;28;20037;-75
2022/02/16 06:18:32;;;;;;;3.95;1.08;;;7.20;99.90;;;;;;5043553;28;20045;-75
2022/02/16 06:20:58;;;;;;;3.65;0.98;;;7.10;99.90;;;;;;5043681;28;20041;-75
2022/02/16 06:23:25;;;;;;;3.00;0.82;;;7.20;99.90;;;;;;5044606;28;20067;-74
2022/02/16 06:25:51;;;;;;;3.13;1.25;;;7.20;99.90;;;;;;5045708;28;20511;-74
2022/02/16 06:28:17;;;;;;;3.72;0.90;;;7.20;99.90;;;;;;5046225;28;20068;-74
2022/02/16 06:30:43;;;;;;;4.25;1.20;;;7.10;99.90;;;;;;5044501;28;20079;-74
2022/02/16 06:33:10;;;;;;;3.42;1.02;;;7.20;99.90;;;;;;5045258;28;20064;-76
2022/02/16 06:35:37;;;;;;;3.63;1.17;;;7.10;99.90;;;;;;5040707;28;20581;-74
2022/02/16 06:38:04;;;;;;;1.83;0.80;;;7.20;99.90;;;;;;5045284;28;20095;-75
2022/02/16 06:40:30;;;;;;;3.20;0.80;;;7.20;99.90;;;;;;5041553;28;20656;-74
2022/02/16 06:42:56;;;;;;;1.60;0.70;;;7.20;99.90;;;;;;5037809;28;20136;-75
2022/02/16 06:45:22;;;;;;;0.95;0.60;;;7.20;99.90;;;;;;5038184;28;20115;-74
2022/02/16 06:47:48;;;;;;;4.20;1.10;;;7.20;99.90;;;;;;5040527;28;20033;-73
2022/02/16 06:50:14;;;;;;;2.00;0.88;;;7.60;99.90;;;;;;5032614;28;20114;-74
2022/02/16 06:52:39;;;;;;;2.33;0.73;;;7.20;99.90;;;;;;5032001;28;20052;-73
2022/02/16 06:55:06;;;;;;;2.22;0.77;;;7.20;99.90;;;;;;5032694;28;20059;-73
2022/02/16 06:57:32;;;;;;;1.10;0.60;;;7.30;99.90;;;;;;5033107;28;20044;-74
2022/02/16 06:59:58;;;;;;;0.73;0.68;;;7.20;99.90;;;;;;5032389;28;20033;-74
2022/02/16 07:02:25;;;;;;;2.13;0.82;;;7.30;99.90;;;;;;5031887;28;20045;-76
2022/02/16 07:04:51;;;;;;;4.03;0.77;;;7.30;99.90;;;;;;5032207;28;20120;-74
2022/02/16 07:07:17;;;;;;;3.28;0.85;;;7.30;99.90;;;;;;5032056;28;20045;-73
2022/02/16 07:09:43;;;;;;;2.38;0.90;;;7.20;99.90;;;;;;5032205;28;20037;-73
2022/02/16 07:12:09;;;;;;;0.65;0.50;;;7.30;99.90;;;;;;5031882;28;20048;-73
2022/02/16 07:14:35;;;;;;;1.65;0.73;;;7.30;99.90;;;;;;5031697;28;20533;-75
2022/02/16 07:17:02;;;;;;;1.58;0.68;;;7.40;99.90;;;;;;5032822;28;20034;-75
2022/02/16 07:19:28;;;;;;;1.38;0.90;;;7.40;99.90;;;;;;5032372;28;20083;-74
2022/02/16 07:21:56;;;;;;;0.90;0.60;;;7.40;99.90;;;;;;5031735;28;20140;-73
2022/02/16 07:24:22;;;;;;;2.83;0.77;;;7.40;99.90;;;;;;5032824;28;20037;-74
2022/02/16 07:26:47;;;;;;;0.93;0.70;;;7.30;99.90;;;;;;5032394;28;20041;-74
2022/02/16 07:29:13;;;;;;;2.90;0.55;;;7.40;99.90;;;;;;5035284;28;20036;-74
2022/02/16 07:31:39;;;;;;;1.02;0.60;;;7.40;99.90;;;;;;5040042;28;20083;-74
2022/02/16 07:34:05;;;;;;;0.93;0.55;;;7.30;99.90;;;;;;5031384;28;20049;-74
2022/02/16 07:36:31;;;;;;;1.10;0.70;;;7.30;99.90;;;;;;5030720;28;20116;-74
2022/02/16 07:38:57;;;;;;;1.35;0.50;;;7.30;99.90;;;;;;5031441;28;20034;-74
2022/02/16 07:41:22;;;;;;;1.55;0.50;;;7.30;99.90;;;;;;5032250;28;20053;-73
2022/02/16 07:43:49;;;;;;;0.30;0.30;;;7.30;99.90;;;;;;5030894;28;20045;-73
2022/02/16 07:46:15;;;;;;;1.45;0.50;;;7.40;99.90;;;;;;5030472;28;20052;-73
2022/02/16 07:48:40;;;;;;;1.27;0.40;;;7.30;99.90;;;;;;5044527;28;20037;-73
2022/02/16 07:51:07;;;;;;;0.55;0.40;;;7.30;99.90;;;;;;5049253;28;20102;-74
2022/02/16 07:53:36;;;;;;;2.05;0.60;;;7.40;99.90;;;;;;5050301;28;20037;-73
2022/02/16 07:56:03;;;;;;;0.50;0.50;;;7.50;99.90;;;;;;5051055;28;20194;-74
2022/02/16 07:58:29;;;;;;;1.55;0.47;;;7.50;99.90;;;;;;5049885;28;20116;-75
2022/02/16 08:00:55;;;;;;;0.95;0.43;;;7.40;99.90;;;;;;5045078;28;20140;-74
2022/02/16 08:03:21;;;;;;;0.93;0.60;;;7.50;99.90;;;;;;5039084;28;20057;-74
2022/02/16 08:05:47;;;;;;;1.10;0.75;;;7.50;99.90;;;;;;5048586;28;20055;-74
2022/02/16 08:08:13;;;;;;;2.33;1.05;;;7.50;99.90;;;;;;5039921;28;20447;-74
2022/02/16 08:10:39;;;;;;;1.83;1.08;;;7.60;99.90;;;;;;5035619;28;20408;-72
2022/02/16 08:13:05;;;;;;;0.32;0.30;;;7.60;99.90;;;;;;5030835;28;20091;-74
2022/02/16 08:15:31;;;;;;;0.82;0.70;;;7.70;99.90;;;;;;5050140;28;20048;-76
2022/02/16 08:17:58;;;;;;;1.83;0.80;;;7.70;99.90;;;;;;5050316;28;20037;-75
2022/02/16 08:20:24;;;;;;;0.98;0.47;;;7.70;99.90;;;;;;5044084;28;20555;-75
2022/02/16 08:22:50;;;;;;;1.45;0.85;;;6.10;99.90;;;;;;5035104;28;20127;-75
2022/02/16 08:25:16;;;;;;;0.40;0.40;;;8.00;99.90;;;;;;5044051;28;20034;-75
2022/02/16 08:27:42;;;;;;;0.55;0.25;;;7.60;99.90;;;;;;5055129;28;20124;-75
2022/02/16 08:30:10;;;;;;;0.40;0.40;;;7.70;99.90;;;;;;5040939;28;20175;-74
2022/02/16 08:32:37;;;;;;;0.20;0.20;;;7.70;99.90;;;;;;5035279;28;20044;-75
2022/02/16 08:35:07;;;;;;;2.67;0.30;;;7.70;99.90;;;;;;5039478;28;20040;-72
2022/02/16 08:37:35;;;;;;;0.25;0.20;;;7.70;99.90;;;;;;5040518;28;20033;-73
2022/02/16 08:40:02;;;;;;;0.65;0.30;;;7.80;99.90;;;;;;5044050;28;20030;-73
2022/02/16 08:42:28;;;;;;;0.55;0.20;;;7.70;99.90;;;;;;5056764;28;20578;-74
2022/02/16 08:44:56;;;;;;;0.20;0.20;;;7.90;99.90;;;;;;5050146;28;20037;-74
2022/02/16 08:47:22;;;;;;;0.40;0.38;;;7.90;99.90;;;;;;5045535;28;20072;-74
2022/02/16 08:49:48;;;;;;;0.38;0.30;;;8.00;99.90;;;;;;5036048;28;20029;-74
2022/02/16 08:52:14;;;;;;;2.15;0.63;;;8.10;99.90;;;;;;5037626;28;20051;-73
2022/02/16 08:54:40;;;;;;;2.20;0.43;;;8.20;99.90;;;;;;5047819;28;20040;-73
2022/02/16 08:57:06;;;;;;;0.20;0.20;;;8.20;99.90;;;;;;5037078;28;20124;-73
2022/02/16 08:59:32;;;;;;;0.20;0.20;;;8.20;99.90;;;;;;5036956;28;20038;-73
2022/02/16 09:01:58;;;;;;;0.30;0.30;;;8.10;99.90;;;;;;5036077;28;20045;-74
2022/02/16 09:04:24;;;;;;;0.60;0.25;;;8.30;99.90;;;;;;5046903;28;20411;-74
2022/02/16 09:09:38;;;;;;;1.45;0.20;;;8.40;99.90;;;;;;5055270;28;20529;-74
2022/02/16 09:12:06;;;;;;;0.20;0.20;;;8.60;99.90;;;;;;5055415;28;20045;-74
2022/02/16 09:14:32;;;;;;;0.25;0.22;;;8.60;99.90;;;;;;5042437;28;20542;-74
2022/02/16 09:16:59;;;;;;;0.20;0.20;;;8.30;99.90;;;;;;5035248;28;20041;-74
2022/02/16 09:19:25;;;;;;;0.82;0.20;;;8.90;97.30;;;;;;5035224;28;20045;-73
2022/02/16 09:21:52;;;;;;;0.20;0.20;;;8.90;99.40;;;;;;5047211;28;20051;-73
2022/02/16 09:24:18;;;;;;;0.20;0.20;;;8.90;92.00;;;;;;5048436;28;20128;-73
2022/02/16 09:26:44;;;;;;;0.20;0.20;;;9.00;99.90;;;;;;5052747;28;20040;-73
2022/02/16 09:29:11;;;;;;;0.30;0.20;;;9.00;97.30;;;;;;5050649;28;20613;-73
2022/02/16 09:31:36;;;;;;;1.23;0.20;;;8.90;95.50;;;;;;5043639;28;20050;-74
2022/02/16 09:34:03;;;;;;;0.20;0.20;;;8.90;99.90;;;;;;5041870;28;20065;-76
2022/02/16 09:36:31;;;;;;;0.43;0.30;;;9.00;99.90;;;;;;5046457;28;20041;-75
2022/02/16 09:38:57;;;;;;;0.30;0.20;;;9.00;99.90;;;;;;5047411;28;20484;-75
2022/02/16 09:41:23;;;;;;;0.68;0.20;;;9.10;99.90;;;;;;5047476;28;20188;-75
2022/02/16 09:43:51;;;;;;;0.20;0.20;;;9.20;99.50;;;;;;5047108;28;20171;-75
2022/02/16 09:46:17;;;;;;;12.95;0.95;;;9.10;95.30;;;;;;5047887;28;20039;-75
2022/02/16 09:48:43;;;;;;;1.95;0.40;;;8.90;93.80;;;;;;5047421;28;20037;-74
2022/02/16 09:51:09;;;;;;;0.35;0.30;;;9.00;92.80;;;;;;5040847;28;20034;-75
2022/02/16 09:53:36;;;;;;;0.17;0.17;;;9.00;99.90;;;;;;5040477;28;20122;-74
2022/02/16 09:56:03;;;;;;;0.40;0.40;;;9.10;99.90;;;;;;5040939;28;20065;-75
2022/02/16 09:58:32;;;;;;;0.35;0.30;;;9.10;98.00;;;;;;5040801;28;20041;-74
2022/02/16 10:01:05;;;;;;;0.55;0.30;;;9.20;99.90;;;;;;5041028;28;20035;-74
2022/02/16 10:03:32;;;;;;;0.20;0.20;;;9.30;99.90;;;;;;5047862;28;20046;-74
2022/02/16 10:05:58;;;;;;;0.10;0.10;;;9.40;90.40;;;;;;5042023;28;20055;-75
2022/02/16 10:08:46;;;;;;;0.25;0.25;;;9.20;99.90;;;;;;5052109;28;20135;-73
2022/02/16 10:11:15;;;;;;;0.20;0.20;;;9.30;99.90;;;;;;5044750;28;20041;-74
2022/02/16 10:13:42;;;;;;;0.35;0.20;;;9.30;99.90;;;;;;5052342;28;20059;-74
2022/02/16 10:16:08;;;;;;;0.10;0.10;;;9.30;99.90;;;;;;5048815;28;20122;-74
2022/02/16 10:18:55;;;;;;;1.17;0.35;;;9.40;92.40;;;;;;5035145;28;20560;-74
2022/02/16 10:21:21;;;;;;;0.75;0.57;;;9.50;73.80;;;;;;5035404;28;20124;-74
2022/02/16 10:23:48;;;;;;;0.20;0.20;;;9.50;84.30;;;;;;5053736;28;20128;-74
2022/02/16 10:26:14;;;;;;;0.20;0.20;;;9.60;95.80;;;;;;5036256;28;20041;-74
2022/02/16 10:28:44;;;;;;;1.33;0.30;;;9.70;92.70;;;;;;5036346;28;20041;-74
2022/02/16 10:31:11;;;;;;;0.75;0.22;;;9.70;99.90;;;;;;5035676;28;20037;-74
2022/02/16 10:33:42;;;;;;;1.83;1.05;;;9.70;96.80;;;;;;5035826;28;20045;-74
2022/02/16 10:36:14;;;;;;;0.60;0.20;;;9.60;43.30;;;;;;5035337;28;20029;-74
2022/02/16 10:39:02;;;;;;;0.10;0.10;;;9.80;68.80;;;;;;5041038;28;20041;-74
2022/02/16 10:41:41;;;;;;;0.28;0.10;;;10.00;73.70;;;;;;5054971;28;20526;-74
2022/02/16 10:44:22;;;;;;;1.38;0.30;;;9.90;89.30;;;;;;5034153;28;20500;-74
2022/02/16 10:47:06;;;;;;;0.40;0.15;;;9.80;91.20;;;;;;5035142;28;20519;-74
2022/02/16 10:49:33;;;;;;;0.50;0.20;;;9.50;99.90;;;;;;5037280;28;20038;-74
2022/02/16 10:52:10;;;;;;;0.55;0.22;;;9.60;99.90;;;;;;5035322;28;20049;-74
2022/02/16 10:54:37;;;;;;;0.20;0.20;;;9.50;99.90;;;;;;5034668;28;20033;-74
2022/02/16 10:57:03;;;;;;;1.55;0.20;;;9.40;98.30;;;;;;5037816;28;20037;-74
2022/02/16 10:59:31;;;;;;;1.30;0.35;;;9.50;99.90;;;;;;5039029;28;20041;-74
2022/02/16 11:02:02;;;;;;;0.43;0.20;;;9.50;99.90;;;;;;5049642;28;20041;-74
2022/02/16 11:04:28;;;;;;;0.20;0.20;;;9.30;99.90;;;;;;5050891;28;20048;-74
2022/02/16 11:06:55;;;;;;;1.10;0.30;;;9.40;99.90;;;;;;5034293;28;20044;-74
2022/02/16 11:09:25;;;;;;;1.10;0.63;;;9.40;99.90;;;;;;5034875;28;20038;-74
2022/02/16 11:11:53;;;;;;;1.80;0.40;;;9.40;96.40;;;;;;5034542;28;20045;-74
2022/02/16 11:14:25;;;;;;;1.02;0.82;;;9.40;99.90;;;;;;5034208;28;20496;-74
2022/02/16 11:16:51;;;;;;;0.40;0.30;;;9.40;99.90;;;;;;5038754;28;20033;-74
2022/02/16 11:19:21;;;;;;;0.65;0.57;;;9.40;99.90;;;;;;5054442;28;20048;-74
2022/02/16 11:22:11;;;;;;;0.40;0.40;;;9.30;99.90;;;;;;5054106;28;20044;-74
2022/02/16 11:24:41;;;;;;;1.40;0.50;;;9.30;99.90;;;;;;5055317;28;20062;-74
2022/02/16 11:27:27;;;;;;;1.40;0.60;;;9.40;99.90;;;;;;5054225;28;20037;-74
2022/02/16 11:29:58;;;;;;;0.85;0.40;;;9.50;99.90;;;;;;5054179;28;20063;-74
2022/02/16 11:32:38;;;;;;;0.82;0.80;;;9.60;99.90;;;;;;5054178;28;20037;-74
2022/02/16 11:35:24;;;;;;;1.88;1.38;;;10.00;99.90;;;;;;5054282;28;20044;-74
2022/02/16 11:38:05;;;;;;;0.93;0.40;;;9.60;99.90;;;;;;5054352;28;20041;-74
2022/02/16 11:40:52;;;;;;;0.40;0.40;;;9.60;99.90;;;;;;5054374;28;20111;-72
2022/02/16 11:43:22;;;;;;;0.30;0.30;;;9.60;99.90;;;;;;5053663;28;20057;-72
2022/02/16 11:46:00;;;;;;;0.57;0.30;;;9.60;99.90;;;;;;5054148;28;20119;-72
2022/02/16 11:48:36;;;;;;;0.70;0.28;;;9.60;99.90;;;;;;5052858;28;20041;-71
2022/02/16 11:51:24;;;;;;;0.50;0.32;;;9.80;99.90;;;;;;5054159;28;20060;-71
2022/02/16 11:53:52;;;;;;;0.30;0.30;;;9.90;99.90;;;;;;5053867;28;20033;-71
2022/02/16 11:56:20;;;;;;;0.50;0.40;;;10.10;99.90;;;;;;5056790;28;20522;-71
2022/02/16 11:59:11;;;;;;;0.30;0.30;;;10.30;99.90;;;;;;5057751;28;20484;-71
2022/02/16 12:02:06;;;;;;;0.77;0.50;;;10.00;96.40;;;;;;5057673;28;20079;-70
2022/02/16 12:04:45;;;;;;;0.30;0.30;;;10.10;92.90;;;;;;5057953;28;20053;-71
2022/02/16 12:07:27;;;;;;;0.32;0.32;;;10.20;98.20;;;;;;5058113;28;20086;-72
2022/02/16 12:10:19;;;;;;;0.55;0.15;;;10.30;79.20;;;;;;5057994;28;20037;-71
2022/02/16 12:12:46;;;;;;;0.40;0.20;;;10.20;90.90;;;;;;5050215;28;20184;-71
2022/02/16 12:15:13;;;;;;;0.30;0.30;;;10.30;73.60;;;;;;5038225;28;20484;-71
2022/02/16 12:17:41;;;;;;;0.20;0.20;;;10.40;86.30;;;;;;5037915;28;20041;-72
2022/02/16 12:20:07;;;;;;;2.85;0.40;;;10.40;56.60;;;;;;5038055;28;20133;-72
2022/02/16 12:22:35;;;;;;;1.58;0.30;;;10.30;94.60;;;;;;5037737;28;20059;-71
2022/02/16 12:25:16;;;;;;;0.40;0.20;;;10.20;99.90;;;;;;5037696;28;20132;-71
2022/02/16 12:27:43;;;;;;;0.38;0.17;;;10.10;99.90;;;;;;5037241;28;20037;-72
2022/02/16 12:30:10;;;;;;;0.70;0.30;;;10.10;99.90;;;;;;5037373;28;20042;-72
2022/02/16 12:32:35;;;;;;;2.47;0.30;;;10.20;99.90;;;;;;5041099;28;20049;-72
2022/02/16 12:35:03;;;;;;;0.38;0.30;;;10.20;98.40;;;;;;5045462;28;20033;-71
2022/02/16 12:37:29;;;;;;;1.25;0.30;;;10.20;99.90;;;;;;5037392;28;20167;-72
2022/02/16 12:40:00;;;;;;;1.55;0.35;;;10.30;99.90;;;;;;5037480;28;20487;-72
2022/02/16 12:42:41;;;;;;;0.85;0.30;;;10.40;99.90;;;;;;5036906;28;20128;-72
2022/02/16 12:45:08;;;;;;;0.88;0.38;;;10.40;99.90;;;;;;5037125;28;20056;-72
2022/02/16 12:47:34;;;;;;;0.40;0.40;;;11.00;58.80;;;;;;5018908;28;20504;-73
2022/02/16 12:50:11;;;;;;;2.53;0.80;;;11.00;42.40;;;;;;5040712;28;20041;-73
2022/02/16 12:52:37;;;;;;;0.20;0.20;;;11.00;41.70;;;;;;5060651;28;20052;-72
2022/02/16 12:55:04;;;;;;;0.40;0.40;;;10.80;71.20;;;;;;5045327;28;20041;-73
2022/02/16 12:57:31;;;;;;;0.38;0.22;;;10.70;90.10;;;;;;5041013;28;20046;-73
2022/02/16 13:02:47;;;;;;;0.68;0.35;;;10.70;92.00;;;;;;5037636;28;20527;-74